Coleman, FL (33521)

3:56 AM EDT en Octubre 22, 2014 (GMT -0400)
Village Of Lake Deaton | Change Station
CLOSE
Current Station
Estación meteorológica personal
Location: Wildwood, FL
Altura: 82 ft
Estaciones meteorológicas cercanas

Alt 82 ft 28.84 °N, 82.00 °W | Updated 1 second ago

Despejado
Despejado
64.0 ° F
Sensación térmica 64.0 ° F
N
0.0
Viento Variable Viento desde Norte
Gusts 0.0 mph

Hoy
Alta -- | Baja -- ° F
--% Posibilidad de precipitaciones
Ayer
Alta -- | Baja -- ° F
Precip. -- pul
7:33 AM 6:51 PM
Creciente menguante, 3% visible
Presión 29.95 pul
Visibilidad 2.5 Millas
Nubes Nubes dispersas 200 ft
Punto de rocío 63 ° F
Humedad 96%
Precipitaciones 0.00 pul
Espesor de la nieve No disponible.
UV 0.0 de una escala de 12
Polen 5.40 de una escala de 12
Calidad del aire No disponible.
Flu Activity Local Activity
METAR KINF 220735Z AUTO 00000KT 2 1/2SM BR SCT002 16/16 A2995 RMK AO2

More Conditions Fewer Conditions

Presión 29.95 pul
Visibilidad 2.5 Millas
Nubes Nubes dispersas 200 ft
Punto de rocío 63 ° F
Humedad 96%
Precipitaciones 0.00 pul
Espesor de la nieve No disponible.
UV 0.0 de una escala de 12
Polen 5.40 de una escala de 12
Calidad del aire No disponible.
Flu Activity Local Activity
METAR KINF 220735Z AUTO 00000KT 2 1/2SM BR SCT002 16/16 A2995 RMK AO2

More Conditions Fewer Conditions

10-Day Weather Forecast

Almanac

Astronomía

Oct. 22, 2014 Salida Puesta
Hora real 7:33 AM EDT 6:51 PM EDT
Crepúsculo civil 7:09 AM EDT 7:15 PM EDT
Crepúsculo náutico 6:41 AM EDT 7:43 PM EDT
Crepúsculo astronómico 6:14 AM EDT 8:10 PM EDT
Luna 6:19 AM EDT 6:13 PM EDT
Horas de luz 12h 05m
Horas de luz
11h 17m
Tomorrow will be 1m 36s shorter.
Creciente menguante, 3% of the Moon is Illuminated
Hoy
Creciente menguante
Oct 23
Nueva
Oct 30
Cuarto creciente
Nov 6
Luna llena
Nov 14
Cuarto menguante

Extremos de hoy

Máximos del estado Bajos del estado

Community

WunderPhotos

Upload Photos

1,763,889 ¡fotos cargadas!

Nearby

Grosos de nieve

Estación Profundido Altura
No tenemos constancia de nieve nueva.

Actividad de terremotos

Ciudad Distance Mag. Tiempo y dato
No hay informes recientes de la actividad sísmica.
Magnitud mínima muestra es 2,5.

Temperaturas de aguas costeras

Lugar Temperatura
Sin partes meteorológicos de las estaciones

Estaciones meteorológicas cercanas